Time;durP1;ratioP1;P1;durP2;ratioP2;P2;SDS_P1;SDS_P2;PMS_P1;PMS_P2;Temp;Humidity;BMP_temperature;BMP_pressure;BME280_temperature;BME280_humidity;BME280_pressure;Samples;Min_cycle;Max_cycle;Signal;HPM_P1;HPM_P2
2022/01/16 00:01:03;;;;;;;74.10;42.85;;;26.40;99.90;;;;;;5034202;28;20072;-69
2022/01/16 00:06:08;;;;;;;76.88;41.97;;;26.40;99.90;;;;;;5033979;28;20392;-70
2022/01/16 00:08:35;;;;;;;115.82;79.07;;;26.40;99.90;;;;;;5034226;28;20030;-71
2022/01/16 00:11:02;;;;;;;79.55;43.78;;;26.40;99.90;;;;;;5033581;28;20064;-69
2022/01/16 00:13:29;;;;;;;70.68;41.08;;;26.40;99.90;;;;;;5034474;28;20028;-70
2022/01/16 00:15:55;;;;;;;69.22;40.92;;;26.50;99.90;;;;;;5043576;28;20040;-70
2022/01/16 00:18:26;;;;;;;68.63;42.63;;;26.50;99.90;;;;;;5033842;28;20021;-71
2022/01/16 00:20:53;;;;;;;68.13;42.88;;;26.50;99.90;;;;;;5033887;28;20021;-71
2022/01/16 00:23:25;;;;;;;66.05;41.85;;;26.50;99.90;;;;;;5034037;28;20106;-71
2022/01/16 00:25:52;;;;;;;;;;;26.50;99.90;;;;;;5033896;28;20071;-70
2022/01/16 00:28:20;;;;;;;179.07;116.93;;;26.50;99.90;;;;;;5033391;28;20371;-71
2022/01/16 00:30:47;;;;;;;85.43;49.25;;;26.50;99.90;;;;;;5033375;28;20026;-72
2022/01/16 00:33:14;;;;;;;84.75;48.70;;;26.60;99.90;;;;;;5033716;28;20380;-75
2022/01/16 00:35:41;;;;;;;117.60;72.85;;;26.60;99.90;;;;;;5033647;28;20025;-71
2022/01/16 00:38:09;;;;;;;88.90;50.17;;;26.60;99.90;;;;;;5033802;28;20025;-73
2022/01/16 00:40:36;;;;;;;85.50;49.35;;;26.60;99.90;;;;;;5033619;28;20029;-73
2022/01/16 00:43:03;;;;;;;88.53;49.20;;;26.70;99.90;;;;;;5033410;28;20484;-71
2022/01/16 00:45:34;;;;;;;77.57;46.35;;;26.70;99.90;;;;;;5034053;28;20039;-72
2022/01/16 00:48:03;;;;;;;81.88;45.40;;;26.80;99.90;;;;;;5033062;28;20029;-71
2022/01/16 00:50:30;;;;;;;81.70;47.75;;;26.70;99.90;;;;;;5033263;28;20392;-71
2022/01/16 00:52:57;;;;;;;80.47;47.42;;;26.70;99.90;;;;;;5033960;28;20025;-71
2022/01/16 00:55:24;;;;;;;90.03;57.00;;;26.70;99.90;;;;;;5036195;28;20100;-71
2022/01/16 00:57:51;;;;;;;95.22;48.40;;;26.80;99.90;;;;;;5041729;28;20419;-70
2022/01/16 01:00:18;;;;;;;82.93;48.22;;;26.80;99.90;;;;;;5034798;28;20029;-72
2022/01/16 01:02:45;;;;;;;86.22;48.78;;;26.80;99.90;;;;;;5043196;28;20559;-73
2022/01/16 01:05:13;;;;;;;93.20;51.00;;;26.90;99.90;;;;;;5033212;28;20293;-72
2022/01/16 01:07:42;;;;;;;104.50;55.80;;;26.90;99.90;;;;;;5038859;28;20143;-71
2022/01/16 01:10:10;;;;;;;92.78;48.85;;;26.90;99.90;;;;;;5032855;28;20534;-72
2022/01/16 01:15:17;;;;;;;83.38;50.53;;;27.00;99.90;;;;;;5030842;28;20025;-72
2022/01/16 01:17:46;;;;;;;81.43;48.70;;;27.00;99.90;;;;;;5033065;28;20036;-73
2022/01/16 01:20:17;;;;;;;84.47;46.10;;;26.90;99.90;;;;;;5030985;28;20025;-72
2022/01/16 01:22:45;;;;;;;91.30;43.67;;;26.90;99.90;;;;;;5032913;28;20025;-73
2022/01/16 01:25:13;;;;;;;70.32;40.92;;;27.00;99.90;;;;;;5030250;28;20057;-74
2022/01/16 01:27:41;;;;;;;73.53;42.58;;;27.00;99.90;;;;;;5015495;28;20468;-73
2022/01/16 01:30:14;;;;;;;87.78;43.05;;;27.10;99.90;;;;;;5032954;28;20021;-76
2022/01/16 01:32:43;;;;;;;72.60;38.38;;;27.10;99.90;;;;;;5032675;28;20021;-76
2022/01/16 01:35:13;;;;;;;77.88;43.45;;;27.10;99.90;;;;;;5030075;28;20056;-74
2022/01/16 01:37:40;;;;;;;98.97;57.10;;;27.20;99.90;;;;;;5014819;28;20460;-74
2022/01/16 01:40:10;;;;;;;104.47;59.03;;;27.20;99.90;;;;;;5032638;28;20032;-72
2022/01/16 01:42:45;;;;;;;76.60;43.85;;;27.20;99.90;;;;;;5033455;28;20028;-72
2022/01/16 01:53:29;;;;;;;66.50;37.00;;;27.40;99.90;;;;;;5036058;28;20262;-72
2022/01/16 01:55:56;;;;;;;75.30;37.78;;;27.50;99.90;;;;;;5036298;28;20048;-72
2022/01/16 01:58:23;;;;;;;154.82;102.90;;;27.50;99.90;;;;;;5035971;28;20022;-71
2022/01/16 02:00:50;;;;;;;89.90;49.75;;;27.50;99.90;;;;;;5036093;28;20469;-75
2022/01/16 02:03:25;;;;;;;73.88;40.08;;;27.50;99.90;;;;;;5036209;28;20051;-73
2022/01/16 02:05:52;;;;;;;82.78;44.63;;;27.60;99.90;;;;;;5044184;28;20103;-73
2022/01/16 02:08:19;;;;;;;69.80;40.72;;;27.60;99.90;;;;;;5035985;28;20014;-76
2022/01/16 02:10:46;;;;;;;72.80;42.47;;;27.70;99.90;;;;;;5040053;28;20032;-75
2022/01/16 02:13:25;;;;;;;82.78;46.13;;;27.80;99.90;;;;;;5036102;28;20041;-72
2022/01/16 02:31:37;;;;;;;68.30;38.58;;;28.10;99.90;;;;;;5038570;28;20075;-75
2022/01/16 02:36:48;;;;;;;70.32;33.50;;;28.20;99.90;;;;;;5036605;28;20040;-75
2022/01/16 02:39:16;;;;;;;;;;;28.30;99.90;;;;;;5036067;28;20034;-74
2022/01/16 02:41:44;;;;;;;46.00;23.13;;;28.40;99.90;;;;;;5035585;28;21724;-74
2022/01/16 02:44:22;;;;;;;64.30;32.03;;;28.50;99.90;;;;;;5035749;28;20032;-73
2022/01/16 02:46:49;;;;;;;47.92;23.52;;;28.60;99.90;;;;;;5035490;28;20049;-72
2022/01/16 02:49:31;;;;;;;51.35;29.17;;;28.70;99.90;;;;;;5035612;28;20029;-73
2022/01/16 02:52:03;;;;;;;54.70;26.27;;;28.80;99.90;;;;;;5032357;28;20028;-73
2022/01/16 02:54:34;;;;;;;;;;;28.70;99.90;;;;;;5032463;28;20029;-73
2022/01/16 02:57:02;;;;;;;51.00;23.53;;;28.80;99.90;;;;;;5034618;28;19913;-73
2022/01/16 02:59:30;;;;;;;102.57;64.88;;;28.90;99.90;;;;;;5034279;28;20108;-73
2022/01/16 03:01:57;;;;;;;69.25;35.38;;;29.00;99.90;;;;;;5034646;28;20021;-74
2022/01/16 03:04:24;;;;;;;43.38;18.88;;;29.00;99.90;;;;;;5034650;28;20021;-75
2022/01/16 03:06:50;;;;;;;57.03;28.83;;;28.90;99.90;;;;;;5034530;28;20028;-72
2022/01/16 03:09:19;;;;;;;56.67;34.70;;;29.00;99.90;;;;;;5034788;28;20017;-72
2022/01/16 03:11:47;;;;;;;71.13;40.95;;;28.90;99.90;;;;;;5034847;28;20028;-75
2022/01/16 03:14:17;;;;;;;48.30;21.52;;;29.00;99.90;;;;;;5042005;28;20488;-77
2022/01/16 03:16:48;;;;;;;39.33;18.08;;;29.00;99.90;;;;;;4985221;28;20053;-73
2022/01/16 03:21:57;;;;;;;34.45;17.85;;;29.10;99.90;;;;;;5033373;28;20056;-70
2022/01/16 03:24:39;;;;;;;42.13;19.08;;;29.20;99.90;;;;;;5037429;28;20074;-71
2022/01/16 03:27:10;;;;;;;40.92;18.77;;;29.20;99.90;;;;;;5032757;28;20044;-72
2022/01/16 03:29:37;;;;;;;47.38;20.40;;;29.30;99.90;;;;;;5031418;28;20115;-74
2022/01/16 03:32:08;;;;;;;50.95;19.70;;;29.30;99.90;;;;;;5033422;28;20451;-73
2022/01/16 03:34:35;;;;;;;36.80;18.00;;;29.40;99.90;;;;;;5034643;28;20031;-73
2022/01/16 03:37:03;;;;;;;36.03;16.27;;;29.50;99.90;;;;;;5018584;28;20024;-72
2022/01/16 03:39:30;;;;;;;34.75;18.25;;;29.50;99.90;;;;;;5033873;28;20018;-73
2022/01/16 03:41:59;;;;;;;37.63;16.25;;;29.60;99.90;;;;;;5037659;28;20017;-72
2022/01/16 03:44:25;;;;;;;34.42;17.45;;;29.70;99.90;;;;;;5033740;28;20036;-72
2022/01/16 03:46:52;;;;;;;33.42;14.98;;;29.80;99.90;;;;;;5031423;28;20476;-72
2022/01/16 03:49:22;;;;;;;34.25;16.33;;;29.90;99.90;;;;;;5034033;28;20048;-76
2022/01/16 03:51:51;;;;;;;28.95;15.10;;;29.90;99.90;;;;;;5017602;28;20104;-79
2022/01/16 03:54:20;;;;;;;32.40;15.13;;;29.90;99.90;;;;;;5034504;28;20032;-77
2022/01/16 03:56:47;;;;;;;32.78;14.65;;;30.00;99.90;;;;;;5035049;28;20025;-77
2022/01/16 03:59:14;;;;;;;25.52;13.68;;;30.10;99.90;;;;;;5033863;28;20261;-73
2022/01/16 04:01:42;;;;;;;32.03;14.40;;;30.20;99.90;;;;;;5039102;28;20557;-72
2022/01/16 04:04:13;;;;;;;35.63;18.90;;;30.20;99.90;;;;;;5032319;28;20029;-74
2022/01/16 04:06:40;;;;;;;33.10;16.67;;;30.30;99.90;;;;;;5033081;28;20009;-72
2022/01/16 04:09:07;;;;;;;25.27;13.13;;;30.20;99.90;;;;;;5033188;28;20108;-74
2022/01/16 04:11:34;;;;;;;32.15;13.63;;;30.20;99.90;;;;;;5033579;28;20018;-74
2022/01/16 04:14:10;;;;;;;29.10;14.52;;;30.10;99.90;;;;;;5033754;28;20407;-72
2022/01/16 04:16:37;;;;;;;30.25;13.30;;;30.10;99.90;;;;;;5033324;28;20091;-74
2022/01/16 04:19:05;;;;;;;28.42;13.65;;;30.00;99.90;;;;;;5031053;28;20047;-73
2022/01/16 04:21:31;;;;;;;32.40;15.10;;;30.00;99.90;;;;;;5033002;28;20029;-76
2022/01/16 04:23:59;;;;;;;31.08;12.80;;;30.00;99.90;;;;;;5033561;28;20029;-76
2022/01/16 04:26:27;;;;;;;29.70;12.55;;;30.10;99.90;;;;;;5032860;28;20021;-76
2022/01/16 04:28:54;;;;;;;36.47;14.00;;;30.10;99.90;;;;;;5032859;28;20041;-76
2022/01/16 04:31:22;;;;;;;35.35;21.20;;;30.10;99.90;;;;;;5035151;28;20021;-76
2022/01/16 04:33:49;;;;;;;34.10;15.10;;;30.20;99.90;;;;;;5041640;28;20312;-76
2022/01/16 04:36:16;;;;;;;39.95;15.25;;;30.30;99.90;;;;;;5032964;28;20026;-76
2022/01/16 04:38:48;;;;;;;39.90;23.48;;;30.30;99.90;;;;;;5033355;28;20032;-75
2022/01/16 04:43:55;;;;;;;39.17;19.27;;;30.60;99.90;;;;;;5029922;28;20093;-76
2022/01/16 04:46:25;;;;;;;56.90;36.78;;;30.70;99.20;;;;;;5032363;28;20106;-74
2022/01/16 04:48:53;;;;;;;28.73;13.45;;;30.70;99.20;;;;;;5032577;28;20388;-77
2022/01/16 04:51:21;;;;;;;33.28;13.38;;;30.70;99.20;;;;;;5032500;28;20021;-72
2022/01/16 04:53:48;;;;;;;42.70;17.38;;;30.80;98.20;;;;;;5032166;28;20025;-73
2022/01/16 04:56:15;;;;;;;78.13;43.67;;;30.90;97.70;;;;;;5014401;28;20371;-74
2022/01/16 04:58:43;;;;;;;41.25;14.95;;;30.90;98.50;;;;;;5031454;28;20492;-72
2022/01/16 05:01:10;;;;;;;27.35;14.15;;;31.00;97.80;;;;;;5033410;28;20018;-71
2022/01/16 05:03:38;;;;;;;27.45;13.23;;;30.90;97.90;;;;;;5044314;28;20036;-71
2022/01/16 05:06:05;;;;;;;26.30;13.73;;;30.90;97.20;;;;;;5033047;28;20031;-69
2022/01/16 05:08:32;;;;;;;32.30;12.02;;;30.80;97.40;;;;;;5048645;28;20067;-69
2022/01/16 05:11:00;;;;;;;28.02;12.25;;;30.80;97.40;;;;;;5041820;28;20049;-68
2022/01/16 05:16:34;;;;;;;22.27;11.02;;;30.70;97.40;;;;;;5032999;28;20032;-70
2022/01/16 05:18:54;;;;;;;22.63;10.52;;;30.70;97.10;;;;;;5037606;28;20060;-72
2022/01/16 05:21:22;;;;;;;24.27;12.13;;;30.70;95.90;;;;;;5036555;28;20032;-71
2022/01/16 05:23:49;;;;;;;23.00;11.48;;;30.70;95.50;;;;;;5036939;28;20029;-71
2022/01/16 05:26:26;;;;;;;25.17;11.55;;;30.70;96.50;;;;;;5036847;28;20028;-71
2022/01/16 05:28:54;;;;;;;25.23;10.75;;;30.70;96.20;;;;;;5036539;28;20037;-72
2022/01/16 05:31:21;;;;;;;22.83;10.05;;;30.80;95.40;;;;;;5035962;28;20029;-72
2022/01/16 05:33:48;;;;;;;86.45;52.00;;;30.80;93.70;;;;;;5036102;28;20484;-69
2022/01/16 05:36:15;;;;;;;88.13;52.15;;;30.90;93.10;;;;;;5035663;28;20437;-71
2022/01/16 05:38:42;;;;;;;48.88;27.20;;;30.90;92.70;;;;;;5036468;28;20025;-69
2022/01/16 05:41:08;;;;;;;39.70;21.23;;;31.00;94.00;;;;;;5036295;28;20018;-71
2022/01/16 05:43:35;;;;;;;33.63;12.90;;;30.90;93.60;;;;;;5036777;28;20108;-70
2022/01/16 05:46:02;;;;;;;22.00;12.23;;;31.00;93.60;;;;;;5036469;28;20017;-71
2022/01/16 05:48:29;;;;;;;22.92;12.43;;;31.00;92.80;;;;;;5036506;28;20357;-70
2022/01/16 05:50:56;;;;;;;22.15;12.23;;;31.00;93.00;;;;;;5036234;28;20483;-70
2022/01/16 05:53:23;;;;;;;27.90;12.45;;;31.00;92.80;;;;;;5036505;28;20033;-70
2022/01/16 05:55:50;;;;;;;25.92;11.93;;;31.10;92.80;;;;;;5036402;28;20028;-70
2022/01/16 05:58:17;;;;;;;23.98;11.48;;;31.10;92.70;;;;;;5036583;28;20029;-70
2022/01/16 06:00:46;;;;;;;21.10;11.40;;;31.20;92.60;;;;;;5036923;28;20028;-70
2022/01/16 06:03:12;;;;;;;24.33;10.52;;;31.30;92.30;;;;;;5036314;28;20022;-70
2022/01/16 06:05:39;;;;;;;25.58;11.20;;;31.40;91.80;;;;;;5036015;28;20017;-69
2022/01/16 06:08:13;;;;;;;21.60;10.27;;;31.50;91.90;;;;;;5036494;28;20084;-70
2022/01/16 06:10:40;;;;;;;25.33;12.85;;;31.50;91.30;;;;;;5036482;28;20487;-68
2022/01/16 06:13:07;;;;;;;25.05;11.55;;;31.70;91.40;;;;;;5036435;28;20037;-68
2022/01/16 06:15:35;;;;;;;30.92;12.77;;;31.80;91.20;;;;;;5036139;28;20476;-70
2022/01/16 06:18:02;;;;;;;27.52;12.23;;;31.80;91.50;;;;;;5036567;28;20034;-68
2022/01/16 06:20:29;;;;;;;34.15;14.38;;;32.00;90.70;;;;;;5037004;28;20026;-67
2022/01/16 06:22:56;;;;;;;24.13;11.70;;;32.00;91.70;;;;;;5036553;28;20029;-68
2022/01/16 06:25:25;;;;;;;21.85;13.25;;;31.90;91.30;;;;;;5036058;28;20168;-68
2022/01/16 06:27:53;;;;;;;28.25;13.57;;;31.90;90.60;;;;;;5035131;28;20042;-71
2022/01/16 06:30:20;;;;;;;24.40;13.00;;;31.80;90.70;;;;;;5035831;28;20049;-67
2022/01/16 06:32:47;;;;;;;33.65;14.77;;;31.90;90.50;;;;;;5035291;28;20021;-71
2022/01/16 06:35:14;;;;;;;28.42;13.07;;;31.80;91.00;;;;;;5016211;28;20038;-70
2022/01/16 06:37:42;;;;;;;23.88;12.32;;;31.80;91.00;;;;;;5016206;28;20392;-70
2022/01/16 06:40:11;;;;;;;31.23;12.90;;;31.80;91.10;;;;;;5021251;28;20064;-70
2022/01/16 06:42:38;;;;;;;25.92;12.05;;;31.80;90.70;;;;;;5049191;28;20083;-71
2022/01/16 06:45:09;;;;;;;23.80;12.15;;;31.80;89.20;;;;;;5023678;28;20057;-70
2022/01/16 06:47:36;;;;;;;20.15;11.90;;;31.80;88.80;;;;;;5035593;28;20014;-70
2022/01/16 06:50:04;;;;;;;25.08;12.48;;;31.80;89.40;;;;;;5055064;28;20044;-71
2022/01/16 06:52:31;;;;;;;25.33;12.98;;;31.80;90.10;;;;;;5055346;28;20109;-70
2022/01/16 06:54:58;;;;;;;29.83;12.75;;;31.90;89.50;;;;;;5055305;28;20360;-67
2022/01/16 06:57:25;;;;;;;25.98;12.57;;;31.90;89.50;;;;;;5055636;28;20029;-69
2022/01/16 06:59:51;;;;;;;22.10;11.32;;;31.90;90.20;;;;;;5055274;28;20502;-69
2022/01/16 07:02:18;;;;;;;25.48;11.85;;;32.00;90.60;;;;;;5055539;28;20548;-70
2022/01/16 07:04:46;;;;;;;25.88;11.80;;;31.90;91.20;;;;;;5054983;28;20479;-69
2022/01/16 07:07:12;;;;;;;29.27;12.30;;;31.80;91.00;;;;;;5054955;28;20024;-68
2022/01/16 07:09:39;;;;;;;24.38;12.00;;;31.80;91.10;;;;;;5054974;28;20143;-70
2022/01/16 07:12:09;;;;;;;23.95;10.70;;;31.80;90.40;;;;;;5055248;28;20025;-69
2022/01/16 07:14:36;;;;;;;19.75;10.90;;;31.80;90.40;;;;;;5055144;28;20025;-70
2022/01/16 07:17:03;;;;;;;28.15;13.27;;;31.80;90.90;;;;;;5055162;28;20407;-69
2022/01/16 07:19:29;;;;;;;20.02;10.50;;;31.90;90.40;;;;;;5055023;28;20017;-69
2022/01/16 07:21:56;;;;;;;88.28;38.17;;;31.80;90.10;;;;;;5055161;28;20028;-70
2022/01/16 07:24:23;;;;;;;65.22;32.05;;;31.90;90.50;;;;;;5054961;28;20025;-69
2022/01/16 07:26:50;;;;;;;51.28;26.30;;;32.00;90.10;;;;;;5054390;28;20029;-70
2022/01/16 07:29:16;;;;;;;36.70;16.38;;;32.00;90.20;;;;;;5054892;28;20025;-69
2022/01/16 07:31:43;;;;;;;49.22;26.77;;;31.90;90.10;;;;;;5054651;28;20028;-69
2022/01/16 07:34:10;;;;;;;38.22;22.30;;;31.90;90.30;;;;;;5054389;28;20021;-70
2022/01/16 07:36:38;;;;;;;32.72;19.33;;;31.90;90.00;;;;;;5049627;28;20433;-70
2022/01/16 07:39:05;;;;;;;50.75;23.23;;;31.90;90.30;;;;;;5054614;28;20025;-70
2022/01/16 07:41:32;;;;;;;61.47;21.90;;;31.90;90.00;;;;;;5034497;28;20151;-69
2022/01/16 07:43:59;;;;;;;29.08;19.02;;;31.80;90.30;;;;;;5043551;28;20028;-68
2022/01/16 07:46:27;;;;;;;49.35;27.08;;;31.90;90.30;;;;;;5036382;28;20026;-68
2022/01/16 07:48:54;;;;;;;32.90;15.38;;;31.80;90.10;;;;;;5034232;28;20468;-68
2022/01/16 07:51:25;;;;;;;27.92;14.07;;;31.80;90.30;;;;;;5034376;28;20029;-70
2022/01/16 07:53:52;;;;;;;33.88;17.98;;;31.80;90.30;;;;;;5034579;28;20021;-69
2022/01/16 07:56:19;;;;;;;32.35;17.08;;;31.80;90.50;;;;;;5034156;28;20040;-68
2022/01/16 07:58:46;;;;;;;31.50;16.63;;;31.80;90.60;;;;;;5034277;28;20064;-70
2022/01/16 08:01:12;;;;;;;43.22;22.95;;;31.70;90.30;;;;;;5033912;28;20108;-69
2022/01/16 08:03:39;;;;;;;39.00;21.40;;;31.80;90.40;;;;;;5034185;28;20021;-69
2022/01/16 08:06:06;;;;;;;27.85;15.80;;;31.70;90.50;;;;;;5034048;28;20024;-70
2022/01/16 08:08:32;;;;;;;27.05;13.90;;;31.70;90.50;;;;;;5034104;28;20075;-70
2022/01/16 08:10:59;;;;;;;71.55;47.60;;;31.60;90.80;;;;;;5033693;28;20013;-70
2022/01/16 08:13:26;;;;;;;121.63;88.72;;;31.60;91.00;;;;;;5033650;28;20013;-70
2022/01/16 08:15:52;;;;;;;39.83;25.05;;;31.60;90.90;;;;;;5033803;28;20032;-69
2022/01/16 08:18:19;;;;;;;67.97;40.75;;;31.60;91.00;;;;;;5033574;28;20025;-69
2022/01/16 08:20:46;;;;;;;294.67;192.93;;;31.60;90.80;;;;;;5034127;28;20159;-69
2022/01/16 08:23:13;;;;;;;258.30;174.60;;;31.60;91.00;;;;;;5033682;28;20057;-69
2022/01/16 08:25:41;;;;;;;54.15;31.75;;;31.60;91.10;;;;;;5033266;28;20018;-69
2022/01/16 08:28:08;;;;;;;54.70;33.97;;;31.60;90.70;;;;;;5033482;28;20503;-69
2022/01/16 08:30:34;;;;;;;109.93;74.45;;;31.60;90.90;;;;;;5033614;28;20031;-70
2022/01/16 08:33:01;;;;;;;56.35;32.25;;;31.60;91.30;;;;;;5033514;28;20021;-69
2022/01/16 08:35:28;;;;;;;53.60;32.67;;;31.60;91.10;;;;;;5033489;28;20025;-70
2022/01/16 08:37:54;;;;;;;78.03;54.72;;;31.60;90.40;;;;;;5033455;28;20387;-69
2022/01/16 08:40:21;;;;;;;49.70;27.63;;;31.60;90.80;;;;;;5033237;28;20385;-69
2022/01/16 08:42:48;;;;;;;169.88;108.47;;;31.70;91.20;;;;;;5033367;28;20380;-69
2022/01/16 08:45:15;;;;;;;127.82;76.68;;;31.70;90.70;;;;;;5033436;28;20384;-69
2022/01/16 08:47:43;;;;;;;101.10;52.45;;;31.70;90.40;;;;;;5033145;28;20411;-68
2022/01/16 08:50:11;;;;;;;209.35;100.53;;;31.70;90.80;;;;;;5033288;28;20018;-69
2022/01/16 08:52:39;;;;;;;162.15;86.32;;;31.70;90.70;;;;;;5032757;28;20476;-69
2022/01/16 08:55:07;;;;;;;40.88;22.48;;;31.60;90.30;;;;;;5032947;28;20022;-69
2022/01/16 08:57:35;;;;;;;91.85;39.70;;;31.60;90.10;;;;;;5033934;28;20029;-69
2022/01/16 09:00:03;;;;;;;43.83;20.25;;;31.60;89.70;;;;;;5032910;28;20042;-69
2022/01/16 09:02:29;;;;;;;133.07;63.72;;;31.60;88.30;;;;;;5032998;28;20036;-69
2022/01/16 09:04:56;;;;;;;54.03;26.77;;;31.60;88.70;;;;;;5033095;28;20022;-68
2022/01/16 09:07:23;;;;;;;89.80;36.17;;;31.60;90.10;;;;;;5033078;28;20027;-70
2022/01/16 09:09:50;;;;;;;80.15;33.42;;;31.70;89.50;;;;;;5033429;28;20100;-69
2022/01/16 09:12:16;;;;;;;95.78;41.85;;;31.60;89.60;;;;;;5032986;28;20021;-69
2022/01/16 09:14:43;;;;;;;86.55;40.28;;;31.70;90.20;;;;;;5033254;28;20385;-69
2022/01/16 09:17:10;;;;;;;86.70;41.75;;;31.70;89.80;;;;;;5033146;28;20444;-69
2022/01/16 09:19:37;;;;;;;85.30;41.85;;;31.70;90.20;;;;;;5032989;28;20021;-69
2022/01/16 09:22:04;;;;;;;67.38;38.47;;;31.70;90.20;;;;;;5033770;28;20018;-69
2022/01/16 09:24:31;;;;;;;78.15;29.48;;;31.80;88.20;;;;;;5032764;28;20017;-67
2022/01/16 09:26:58;;;;;;;65.35;25.27;;;31.70;88.50;;;;;;5032749;28;20025;-69
2022/01/16 09:29:24;;;;;;;54.33;21.40;;;31.70;89.00;;;;;;5033222;28;20104;-69
2022/01/16 09:31:51;;;;;;;41.55;16.83;;;31.70;88.50;;;;;;5032772;28;20025;-70
2022/01/16 09:34:18;;;;;;;39.22;17.50;;;31.70;88.40;;;;;;5033493;28;20395;-69
2022/01/16 09:36:45;;;;;;;41.60;22.23;;;31.70;87.30;;;;;;5033448;28;20033;-70
2022/01/16 09:39:12;;;;;;;64.25;33.60;;;31.70;89.40;;;;;;5033873;28;20091;-70
2022/01/16 09:41:42;;;;;;;43.80;21.35;;;31.70;89.80;;;;;;5032987;28;20352;-70
2022/01/16 09:44:09;;;;;;;65.40;34.70;;;31.70;89.40;;;;;;5032629;28;20033;-70
2022/01/16 09:46:36;;;;;;;121.88;61.13;;;31.60;90.10;;;;;;5032462;28;20424;-69
2022/01/16 09:49:04;;;;;;;55.72;26.63;;;31.60;90.60;;;;;;5032332;28;20096;-68
2022/01/16 09:51:32;;;;;;;46.88;23.70;;;31.60;90.50;;;;;;5034106;28;20064;-69
2022/01/16 09:54:02;;;;;;;38.42;18.10;;;31.60;90.60;;;;;;5041053;28;20021;-69
2022/01/16 09:56:28;;;;;;;34.03;19.08;;;31.60;90.70;;;;;;5032849;28;20021;-70
2022/01/16 09:58:55;;;;;;;32.53;16.45;;;31.50;90.70;;;;;;5032594;28;20018;-71
2022/01/16 10:01:25;;;;;;;50.08;29.30;;;31.50;90.40;;;;;;5031764;28;20067;-68
2022/01/16 10:03:52;;;;;;;91.72;50.63;;;31.50;90.90;;;;;;5018782;28;20121;-68
2022/01/16 10:06:21;;;;;;;60.13;35.85;;;31.50;91.00;;;;;;5036943;28;20105;-69
2022/01/16 10:08:54;;;;;;;141.85;80.40;;;31.40;91.10;;;;;;5034105;28;20148;-68
2022/01/16 10:11:21;;;;;;;51.17;27.17;;;31.40;91.50;;;;;;5035513;28;20021;-69
2022/01/16 10:13:59;;;;;;;52.70;33.92;;;31.30;91.60;;;;;;5035748;28;20013;-69
2022/01/16 10:16:32;;;;;;;124.65;77.78;;;31.30;91.70;;;;;;5033695;28;20026;-69
2022/01/16 10:19:00;;;;;;;61.67;34.10;;;31.20;91.70;;;;;;5034983;28;20340;-68
2022/01/16 10:21:37;;;;;;;74.85;37.55;;;31.20;92.00;;;;;;5034924;28;20025;-68
2022/01/16 10:24:24;;;;;;;90.00;46.90;;;31.00;92.00;;;;;;5034345;28;20104;-70
2022/01/16 10:27:16;;;;;;;64.20;36.95;;;30.70;92.00;;;;;;5032443;28;20455;-69
2022/01/16 10:29:53;;;;;;;55.28;36.75;;;30.40;92.40;;;;;;5037313;28;20017;-69
2022/01/16 10:32:24;;;;;;;82.22;49.70;;;30.10;92.90;;;;;;5035284;28;20025;-68
2022/01/16 10:34:54;;;;;;;69.40;40.53;;;30.10;93.50;;;;;;5038280;28;20416;-72
2022/01/16 10:37:27;;;;;;;66.32;33.35;;;29.90;94.00;;;;;;5044996;28;20025;-68
2022/01/16 10:40:03;;;;;;;85.95;51.95;;;29.70;94.50;;;;;;5039187;28;20029;-69
2022/01/16 10:42:32;;;;;;;90.55;62.17;;;29.50;95.20;;;;;;5053145;28;20399;-69
2022/01/16 10:45:04;;;;;;;55.00;31.90;;;29.20;96.30;;;;;;5034234;28;20491;-69
2022/01/16 10:47:44;;;;;;;43.50;25.13;;;29.00;96.70;;;;;;5032202;28;20591;-70
2022/01/16 10:50:19;;;;;;;54.70;23.77;;;28.70;97.10;;;;;;5032537;28;20033;-70
2022/01/16 10:52:54;;;;;;;45.35;28.33;;;28.50;98.00;;;;;;5033382;28;20018;-69
2022/01/16 10:55:24;;;;;;;61.05;34.63;;;28.40;99.00;;;;;;5032674;28;20052;-71
2022/01/16 10:58:04;;;;;;;49.17;26.60;;;28.30;99.90;;;;;;5031098;28;20022;-70
2022/01/16 11:00:31;;;;;;;22.70;11.40;;;28.20;99.90;;;;;;5032031;28;20022;-71
2022/01/16 11:03:01;;;;;;;21.20;10.30;;;28.20;99.90;;;;;;5016240;28;20033;-70
2022/01/16 11:05:28;;;;;;;19.23;11.20;;;28.20;99.90;;;;;;5032669;28;20036;-69
2022/01/16 11:08:01;;;;;;;63.95;43.17;;;28.20;99.90;;;;;;5033500;28;20100;-71
2022/01/16 11:10:31;;;;;;;104.45;73.95;;;28.20;99.90;;;;;;5033225;28;20026;-70
2022/01/16 11:13:00;;;;;;;245.05;173.40;;;28.30;99.90;;;;;;5015091;28;20018;-70
2022/01/16 11:15:28;;;;;;;127.95;90.70;;;28.40;99.90;;;;;;5031565;28;20026;-70
2022/01/16 11:17:55;;;;;;;72.53;45.72;;;28.40;99.90;;;;;;5033194;28;20068;-71
2022/01/16 11:20:28;;;;;;;127.65;90.07;;;28.50;99.90;;;;;;5033180;28;20040;-71
2022/01/16 11:22:59;;;;;;;78.03;55.30;;;28.50;99.90;;;;;;5033267;28;20037;-70
2022/01/16 11:25:33;;;;;;;25.60;15.80;;;28.40;99.90;;;;;;5033595;28;20029;-71
2022/01/16 11:28:05;;;;;;;27.85;15.50;;;28.50;99.90;;;;;;5032283;28;20470;-70
2022/01/16 11:30:34;;;;;;;23.33;14.52;;;28.50;99.90;;;;;;5032552;28;20045;-72
2022/01/16 11:33:02;;;;;;;23.10;13.30;;;28.60;99.90;;;;;;5033424;28;20025;-70
2022/01/16 11:35:33;;;;;;;26.23;14.13;;;28.50;99.90;;;;;;5032515;28;20479;-71
2022/01/16 11:38:00;;;;;;;25.35;14.00;;;28.60;99.90;;;;;;5032581;28;20022;-70
2022/01/16 11:40:41;;;;;;;27.83;15.23;;;28.60;99.90;;;;;;5033071;28;20029;-71
2022/01/16 11:43:23;;;;;;;25.92;15.70;;;28.60;99.90;;;;;;5032465;28;20018;-71
2022/01/16 11:46:04;;;;;;;32.90;16.88;;;28.60;99.90;;;;;;5032784;28;20447;-71
2022/01/16 11:48:49;;;;;;;29.20;17.77;;;28.60;99.90;;;;;;5031336;28;20039;-71
2022/01/16 11:51:34;;;;;;;28.55;16.23;;;28.60;99.90;;;;;;5033159;28;20025;-71
2022/01/16 11:54:13;;;;;;;27.58;18.00;;;28.60;99.90;;;;;;5036413;28;20020;-72
2022/01/16 11:57:01;;;;;;;52.38;28.75;;;28.60;99.90;;;;;;5033684;28;20017;-71
2022/01/16 11:59:36;;;;;;;69.90;38.30;;;28.60;99.90;;;;;;5031333;28;20272;-70
2022/01/16 12:02:24;;;;;;;50.97;31.27;;;28.50;99.90;;;;;;5032549;28;20045;-70
2022/01/16 12:04:56;;;;;;;59.53;30.60;;;28.60;99.90;;;;;;5032832;28;20059;-70
2022/01/16 12:07:45;;;;;;;;;;;28.60;99.90;;;;;;5033052;28;20029;-72
2022/01/16 12:10:32;;;;;;;52.50;29.83;;;28.60;99.90;;;;;;5034334;28;20003;-72
2022/01/16 12:12:59;;;;;;;69.45;38.15;;;28.50;99.90;;;;;;5034927;28;20017;-72
2022/01/16 12:15:27;;;;;;;57.35;36.75;;;28.50;99.90;;;;;;5032332;28;20030;-70
2022/01/16 12:17:53;;;;;;;62.78;38.15;;;28.50;99.90;;;;;;5032260;28;20483;-71
2022/01/16 12:20:23;;;;;;;68.55;37.45;;;28.50;99.90;;;;;;5032251;28;20024;-71
2022/01/16 12:23:05;;;;;;;68.65;35.85;;;28.60;99.90;;;;;;5032641;28;20025;-71
2022/01/16 12:25:45;;;;;;;98.60;56.67;;;28.60;99.90;;;;;;5035042;28;20104;-70
2022/01/16 12:28:15;;;;;;;112.63;65.43;;;28.60;99.90;;;;;;5032105;28;20270;-71
2022/01/16 12:31:03;;;;;;;89.10;54.33;;;28.60;99.90;;;;;;5032485;28;20017;-71
2022/01/16 12:33:42;;;;;;;68.50;43.90;;;28.50;99.90;;;;;;5030915;28;20025;-70
2022/01/16 12:36:23;;;;;;;73.78;41.88;;;28.60;99.90;;;;;;5036994;28;20423;-70
2022/01/16 12:38:53;;;;;;;88.55;56.40;;;28.50;99.90;;;;;;5031589;28;20129;-70
2022/01/16 12:41:28;;;;;;;98.45;59.53;;;28.50;99.90;;;;;;5032341;28;20032;-71
2022/01/16 12:44:11;;;;;;;76.85;48.15;;;28.50;99.90;;;;;;5030324;28;20071;-70
2022/01/16 12:46:45;;;;;;;56.00;37.15;;;28.50;99.90;;;;;;5030591;28;20025;-71
2022/01/16 12:49:17;;;;;;;63.30;43.13;;;28.50;99.90;;;;;;5030282;28;20476;-70
2022/01/16 12:51:48;;;;;;;90.47;60.75;;;28.50;99.90;;;;;;5032665;28;20468;-70
2022/01/16 12:54:25;;;;;;;94.63;58.70;;;28.40;99.90;;;;;;5030004;28;20025;-69
2022/01/16 12:57:00;;;;;;;73.13;47.28;;;28.40;99.90;;;;;;5029284;28;20052;-69
2022/01/16 12:59:30;;;;;;;70.65;48.65;;;28.40;99.90;;;;;;5031050;28;20075;-69
2022/01/16 13:02:02;;;;;;;68.70;46.80;;;28.40;99.90;;;;;;5030766;28;20433;-69
2022/01/16 13:04:35;;;;;;;78.82;54.92;;;28.40;99.90;;;;;;5031946;28;20044;-69
2022/01/16 13:07:09;;;;;;;124.93;82.35;;;28.40;99.90;;;;;;5032483;28;20105;-68
2022/01/16 13:09:36;;;;;;;186.57;125.70;;;28.40;99.90;;;;;;5034113;28;20472;-71
2022/01/16 13:12:07;;;;;;;161.52;109.30;;;28.30;99.90;;;;;;5059299;22;20025;-70
2022/01/16 13:14:37;;;;;;;121.93;76.95;;;28.40;99.90;;;;;;5068273;28;20040;-69
2022/01/16 13:17:06;;;;;;;73.55;47.58;;;28.30;99.90;;;;;;5071680;28;20107;-69
2022/01/16 13:19:51;;;;;;;58.05;43.33;;;28.30;99.90;;;;;;5070263;28;20024;-69